Time,TemperatureF,DewpointF,PressureIn,WindDirection,WindDirectionDegrees,WindSpeedMPH,WindSpeedGustMPH,Humidity,HourlyPrecipIn,Conditions,Clouds,dailyrainin,SoftwareType,DateUTC
2013-05-18 00:00:00,47.0,38.0,30.24,WSW,247,0.0,0.0,73,0.00,,,0.00,Rainwise IP-100,2013-05-18 04:00:00,
2013-05-18 00:01:00,47.0,38.0,30.24,WSW,247,0.0,0.0,73,0.00,,,0.00,Rainwise IP-100,2013-05-18 04:01:00,
2013-05-18 00:06:00,47.0,38.0,30.24,WSW,247,0.0,0.0,72,0.00,,,0.00,Rainwise IP-100,2013-05-18 04:06:00,
2013-05-18 00:11:00,48.0,40.0,30.23,WSW,247,1.0,1.0,73,0.00,,,0.00,Rainwise IP-100,2013-05-18 04:11:00,
2013-05-18 00:16:00,48.0,40.0,30.23,WSW,247,0.0,2.0,73,0.00,,,0.00,Rainwise IP-100,2013-05-18 04:16:00,
2013-05-18 00:21:00,48.0,40.0,30.23,WSW,247,0.0,0.0,74,0.00,,,0.00,Rainwise IP-100,2013-05-18 04:21:00,
2013-05-18 00:26:00,47.0,39.0,30.23,WSW,247,0.0,0.0,74,0.00,,,0.00,Rainwise IP-100,2013-05-18 04:26:00,
2013-05-18 00:31:00,47.0,39.0,30.24,WSW,247,0.0,0.0,74,0.00,,,0.00,Rainwise IP-100,2013-05-18 04:31:00,
2013-05-18 00:36:00,47.0,38.0,30.24,WSW,247,0.0,0.0,73,0.00,,,0.00,Rainwise IP-100,2013-05-18 04:36:00,
2013-05-18 00:41:00,48.0,40.0,30.24,WSW,247,0.0,1.0,74,0.00,,,0.00,Rainwise IP-100,2013-05-18 04:41:00,
2013-05-18 00:46:00,47.0,38.0,30.24,SW,225,0.0,1.0,73,0.00,,,0.00,Rainwise IP-100,2013-05-18 04:46:00,
2013-05-18 00:51:00,48.0,41.0,30.24,SW,225,0.0,2.0,75,0.00,,,0.00,Rainwise IP-100,2013-05-18 04:51:00,
2013-05-18 00:56:00,48.0,41.0,30.24,SW,225,0.0,1.0,75,0.00,,,0.00,Rainwise IP-100,2013-05-18 04:56:00,
2013-05-18 01:02:00,48.0,41.0,30.24,SW,225,2.0,3.0,75,0.00,,,0.00,Rainwise IP-100,2013-05-18 05:02:00,
2013-05-18 01:07:00,47.0,39.0,30.24,WSW,247,1.0,2.0,74,0.00,,,0.00,Rainwise IP-100,2013-05-18 05:07:00,
2013-05-18 01:12:00,48.0,41.0,30.24,SW,225,2.0,2.0,75,0.00,,,0.00,Rainwise IP-100,2013-05-18 05:12:00,
2013-05-18 01:17:00,47.0,38.0,30.24,SW,225,0.0,2.0,73,0.00,,,0.00,Rainwise IP-100,2013-05-18 05:17:00,
2013-05-18 01:22:00,48.0,41.0,30.24,SW,225,0.0,2.0,75,0.00,,,0.00,Rainwise IP-100,2013-05-18 05:22:00,
2013-05-18 01:27:00,48.0,40.0,30.24,SW,225,1.0,3.0,74,0.00,,,0.00,Rainwise IP-100,2013-05-18 05:27:00,
2013-05-18 01:32:00,48.0,41.0,30.23,SW,225,0.0,3.0,75,0.00,,,0.00,Rainwise IP-100,2013-05-18 05:32:00,
2013-05-18 01:37:00,47.0,39.0,30.23,WSW,247,0.0,2.0,74,0.00,,,0.00,Rainwise IP-100,2013-05-18 05:37:00,
2013-05-18 01:42:00,47.0,39.0,30.24,WSW,247,0.0,1.0,74,0.00,,,0.00,Rainwise IP-100,2013-05-18 05:42:00,
2013-05-18 01:47:00,47.0,39.0,30.24,WSW,247,0.0,1.0,74,0.00,,,0.00,Rainwise IP-100,2013-05-18 05:47:00,
2013-05-18 01:52:00,47.0,39.0,30.24,WSW,247,0.0,2.0,74,0.00,,,0.00,Rainwise IP-100,2013-05-18 05:52:00,
2013-05-18 01:57:00,47.0,38.0,30.24,WSW,247,0.0,1.0,73,0.00,,,0.00,Rainwise IP-100,2013-05-18 05:57:00,
2013-05-18 02:03:00,47.0,38.0,30.24,WSW,247,0.0,0.0,72,0.00,,,0.00,Rainwise IP-100,2013-05-18 06:03:00,
2013-05-18 02:07:00,47.0,38.0,30.24,WSW,247,0.0,0.0,72,0.00,,,0.00,Rainwise IP-100,2013-05-18 06:07:00,
2013-05-18 02:12:00,47.0,38.0,30.24,WSW,247,0.0,0.0,72,0.00,,,0.00,Rainwise IP-100,2013-05-18 06:12:00,
2013-05-18 02:17:00,47.0,38.0,30.24,WSW,247,1.0,2.0,72,0.00,,,0.00,Rainwise IP-100,2013-05-18 06:17:00,
2013-05-18 02:22:00,47.0,38.0,30.24,SW,225,0.0,1.0,72,0.00,,,0.00,Rainwise IP-100,2013-05-18 06:22:00,
2013-05-18 02:27:00,47.0,38.0,30.24,SW,225,0.0,0.0,71,0.00,,,0.00,Rainwise IP-100,2013-05-18 06:27:00,
2013-05-18 02:32:00,47.0,38.0,30.24,SW,225,0.0,0.0,71,0.00,,,0.00,Rainwise IP-100,2013-05-18 06:32:00,
2013-05-18 02:37:00,47.0,38.0,30.24,SW,225,0.0,0.0,71,0.00,,,0.00,Rainwise IP-100,2013-05-18 06:37:00,
2013-05-18 02:42:00,47.0,38.0,30.24,SW,225,0.0,0.0,71,0.00,,,0.00,Rainwise IP-100,2013-05-18 06:42:00,
2013-05-18 02:47:00,47.0,37.0,30.24,SW,225,0.0,0.0,70,0.00,,,0.00,Rainwise IP-100,2013-05-18 06:47:00,
2013-05-18 02:52:00,47.0,37.0,30.24,SW,225,0.0,0.0,69,0.00,,,0.00,Rainwise IP-100,2013-05-18 06:52:00,
2013-05-18 02:58:00,47.0,37.0,30.24,SW,225,0.0,0.0,70,0.00,,,0.00,Rainwise IP-100,2013-05-18 06:58:00,
2013-05-18 03:03:00,47.0,37.0,30.24,WSW,247,0.0,0.0,69,0.00,,,0.00,Rainwise IP-100,2013-05-18 07:03:00,
2013-05-18 03:08:00,47.0,37.0,30.24,WSW,247,0.0,0.0,69,0.00,,,0.00,Rainwise IP-100,2013-05-18 07:08:00,
2013-05-18 03:13:00,47.0,37.0,30.24,WSW,247,0.0,1.0,70,0.00,,,0.00,Rainwise IP-100,2013-05-18 07:13:00,
2013-05-18 03:18:00,47.0,37.0,30.24,WSW,247,0.0,1.0,69,0.00,,,0.00,Rainwise IP-100,2013-05-18 07:18:00,
2013-05-18 03:23:00,47.0,37.0,30.24,WSW,247,0.0,0.0,69,0.00,,,0.00,Rainwise IP-100,2013-05-18 07:23:00,
2013-05-18 03:28:00,47.0,37.0,30.24,WSW,247,0.0,0.0,69,0.00,,,0.00,Rainwise IP-100,2013-05-18 07:28:00,
2013-05-18 03:33:00,47.0,37.0,30.24,WSW,247,0.0,0.0,69,0.00,,,0.00,Rainwise IP-100,2013-05-18 07:33:00,
2013-05-18 03:38:00,47.0,37.0,30.24,WSW,247,0.0,0.0,69,0.00,,,0.00,Rainwise IP-100,2013-05-18 07:38:00,
2013-05-18 03:43:00,47.0,37.0,30.24,WSW,247,0.0,1.0,68,0.00,,,0.00,Rainwise IP-100,2013-05-18 07:43:00,
2013-05-18 03:48:00,47.0,37.0,30.24,WSW,247,0.0,2.0,68,0.00,,,0.00,Rainwise IP-100,2013-05-18 07:48:00,
2013-05-18 03:53:00,47.0,36.0,30.24,WSW,247,0.0,2.0,67,0.00,,,0.00,Rainwise IP-100,2013-05-18 07:53:00,
2013-05-18 03:58:00,47.0,36.0,30.24,West,270,0.0,2.0,67,0.00,,,0.00,Rainwise IP-100,2013-05-18 07:58:00,
2013-05-18 04:03:00,47.0,36.0,30.25,West,270,0.0,0.0,67,0.00,,,0.00,Rainwise IP-100,2013-05-18 08:03:00,
2013-05-18 04:08:00,47.0,36.0,30.25,West,270,0.0,1.0,67,0.00,,,0.00,Rainwise IP-100,2013-05-18 08:08:00,
2013-05-18 04:13:00,47.0,36.0,30.25,West,270,0.0,0.0,67,0.00,,,0.00,Rainwise IP-100,2013-05-18 08:13:00,
2013-05-18 04:19:00,46.0,36.0,30.25,West,270,0.0,0.0,67,0.00,,,0.00,Rainwise IP-100,2013-05-18 08:19:00,
2013-05-18 04:24:00,46.0,36.0,30.26,West,270,0.0,0.0,67,0.00,,,0.00,Rainwise IP-100,2013-05-18 08:24:00,
2013-05-18 04:29:00,47.0,36.0,30.26,West,270,0.0,0.0,66,0.00,,,0.00,Rainwise IP-100,2013-05-18 08:29:00,
2013-05-18 04:34:00,47.0,36.0,30.26,WSW,247,1.0,2.0,66,0.00,,,0.00,Rainwise IP-100,2013-05-18 08:34:00,
2013-05-18 04:39:00,47.0,36.0,30.26,WSW,247,0.0,2.0,66,0.00,,,0.00,Rainwise IP-100,2013-05-18 08:39:00,
2013-05-18 04:44:00,46.0,35.0,30.26,WSW,247,0.0,0.0,66,0.00,,,0.00,Rainwise IP-100,2013-05-18 08:44:00,
2013-05-18 04:49:00,47.0,35.0,30.26,WSW,247,0.0,0.0,64,0.00,,,0.00,Rainwise IP-100,2013-05-18 08:49:00,
2013-05-18 04:55:00,46.0,35.0,30.26,WSW,247,0.0,1.0,65,0.00,,,0.00,Rainwise IP-100,2013-05-18 08:55:00,
2013-05-18 05:00:00,46.0,37.0,30.27,WSW,247,0.0,0.0,71,0.00,,,0.00,Rainwise IP-100,2013-05-18 09:00:00,
2013-05-18 05:05:00,46.0,35.0,30.27,WSW,247,0.0,0.0,65,0.00,,,0.00,Rainwise IP-100,2013-05-18 09:05:00,
2013-05-18 05:10:00,46.0,35.0,30.28,West,270,0.0,1.0,65,0.00,,,0.00,Rainwise IP-100,2013-05-18 09:10:00,
2013-05-18 05:15:00,46.0,35.0,30.28,West,270,0.0,0.0,64,0.00,,,0.00,Rainwise IP-100,2013-05-18 09:15:00,
2013-05-18 05:20:00,46.0,35.0,30.28,West,270,0.0,0.0,64,0.00,,,0.00,Rainwise IP-100,2013-05-18 09:20:00,
2013-05-18 05:26:00,46.0,35.0,30.28,West,270,0.0,0.0,63,0.00,,,0.00,Rainwise IP-100,2013-05-18 09:26:00,
2013-05-18 05:31:00,46.0,35.0,30.28,West,270,0.0,0.0,64,0.00,,,0.00,Rainwise IP-100,2013-05-18 09:31:00,
2013-05-18 05:36:00,47.0,35.0,30.28,West,270,0.0,0.0,63,0.00,,,0.00,Rainwise IP-100,2013-05-18 09:36:00,
2013-05-18 05:41:00,47.0,35.0,30.28,West,270,0.0,0.0,63,0.00,,,0.00,Rainwise IP-100,2013-05-18 09:41:00,
2013-05-18 05:46:00,47.0,35.0,30.28,West,270,0.0,0.0,62,0.00,,,0.00,Rainwise IP-100,2013-05-18 09:46:00,
2013-05-18 05:51:00,47.0,35.0,30.28,West,270,0.0,0.0,62,0.00,,,0.00,Rainwise IP-100,2013-05-18 09:51:00,
2013-05-18 05:56:00,48.0,36.0,30.28,West,270,0.0,0.0,61,0.00,,,0.00,Rainwise IP-100,2013-05-18 09:56:00,
2013-05-18 06:01:00,48.0,36.0,30.29,West,270,0.0,0.0,61,0.00,,,0.00,Rainwise IP-100,2013-05-18 10:01:00,
2013-05-18 06:06:00,48.0,35.0,30.29,West,270,0.0,0.0,60,0.00,,,0.00,Rainwise IP-100,2013-05-18 10:06:00,
2013-05-18 06:11:00,49.0,36.0,30.29,West,270,0.0,0.0,59,0.00,,,0.00,Rainwise IP-100,2013-05-18 10:11:00,
2013-05-18 06:16:00,49.0,36.0,30.29,West,270,0.0,1.0,59,0.00,,,0.00,Rainwise IP-100,2013-05-18 10:16:00,
2013-05-18 06:21:00,49.0,36.0,30.29,West,270,0.0,0.0,60,0.00,,,0.00,Rainwise IP-100,2013-05-18 10:21:00,
2013-05-18 06:26:00,50.0,36.0,30.29,WSW,247,0.0,1.0,59,0.00,,,0.00,Rainwise IP-100,2013-05-18 10:26:00,
2013-05-18 06:31:00,50.0,37.0,30.29,NW,315,0.0,1.0,60,0.00,,,0.00,Rainwise IP-100,2013-05-18 10:31:00,
2013-05-18 06:36:00,51.0,38.0,30.29,NW,315,0.0,3.0,60,0.00,,,0.00,Rainwise IP-100,2013-05-18 10:36:00,
2013-05-18 06:42:00,52.0,39.0,30.28,West,270,0.0,1.0,62,0.00,,,0.00,Rainwise IP-100,2013-05-18 10:42:00,
2013-05-18 06:47:00,53.0,39.0,30.28,WSW,247,0.0,0.0,61,0.00,,,0.00,Rainwise IP-100,2013-05-18 10:47:00,
2013-05-18 06:52:00,54.0,41.0,30.28,SW,225,0.0,2.0,61,0.00,,,0.00,Rainwise IP-100,2013-05-18 10:52:00,
2013-05-18 06:57:00,53.0,40.0,30.28,SW,225,1.0,3.0,62,0.00,,,0.00,Rainwise IP-100,2013-05-18 10:57:00,
2013-05-18 07:02:00,53.0,42.0,30.29,West,270,5.0,6.0,67,0.00,,,0.00,Rainwise IP-100,2013-05-18 11:02:00,
2013-05-18 07:07:00,54.0,45.0,30.29,SW,225,0.0,6.0,71,0.00,,,0.00,Rainwise IP-100,2013-05-18 11:07:00,
2013-05-18 07:12:00,54.0,46.0,30.29,NW,315,0.0,7.0,73,0.00,,,0.00,Rainwise IP-100,2013-05-18 11:12:00,
2013-05-18 07:17:00,55.0,47.5,30.29,South,180,0.0,5.0,74,0.00,,,0.00,Rainwise IP-100,2013-05-18 11:17:00,
2013-05-18 07:22:00,56.0,47.5,30.28,SW,225,0.0,5.0,74,0.00,,,0.00,Rainwise IP-100,2013-05-18 11:22:00,
2013-05-18 07:27:00,56.0,48.0,30.28,WSW,247,0.0,5.0,75,0.00,,,0.00,Rainwise IP-100,2013-05-18 11:27:00,
2013-05-18 07:32:00,56.0,48.0,30.29,SSW,202,1.0,5.0,76,0.00,,,0.00,Rainwise IP-100,2013-05-18 11:32:00,
2013-05-18 07:37:00,57.0,50.0,30.29,WNW,292,0.0,4.0,76,0.00,,,0.00,Rainwise IP-100,2013-05-18 11:37:00,
2013-05-18 07:42:00,57.0,50.0,30.28,NW,315,5.0,6.0,77,0.00,,,0.00,Rainwise IP-100,2013-05-18 11:42:00,
2013-05-18 07:47:00,58.0,51.0,30.28,West,270,5.0,6.0,77,0.00,,,0.00,Rainwise IP-100,2013-05-18 11:47:00,
2013-05-18 07:52:00,57.0,50.5,30.29,SW,225,6.0,8.0,78,0.00,,,0.00,Rainwise IP-100,2013-05-18 11:52:00,
2013-05-18 07:58:00,58.0,51.0,30.29,WNW,292,6.0,9.0,78,0.00,,,0.00,Rainwise IP-100,2013-05-18 11:58:00,
2013-05-18 08:03:00,58.0,51.0,30.28,WNW,292,4.0,12.0,78,0.00,,,0.00,Rainwise IP-100,2013-05-18 12:03:00,
2013-05-18 08:08:00,58.0,51.0,30.28,WSW,247,0.0,9.0,78,0.00,,,0.00,Rainwise IP-100,2013-05-18 12:08:00,
2013-05-18 08:13:00,59.0,53.0,30.28,West,270,4.0,8.0,79,0.00,,,0.00,Rainwise IP-100,2013-05-18 12:13:00,
2013-05-18 08:18:00,59.0,53.0,30.28,NW,315,6.0,8.0,79,0.00,,,0.00,Rainwise IP-100,2013-05-18 12:18:00,
2013-05-18 08:23:00,60.0,53.5,30.28,WSW,247,6.0,8.0,79,0.00,,,0.00,Rainwise IP-100,2013-05-18 12:23:00,
2013-05-18 08:28:00,60.0,54.0,30.28,WNW,292,3.0,9.0,80,0.00,,,0.00,Rainwise IP-100,2013-05-18 12:28:00,
2013-05-18 08:33:00,60.0,54.0,30.28,West,270,6.0,9.0,80,0.00,,,0.00,Rainwise IP-100,2013-05-18 12:33:00,
2013-05-18 08:38:00,60.0,54.0,30.28,NW,315,3.0,8.0,80,0.00,,,0.00,Rainwise IP-100,2013-05-18 12:38:00,
2013-05-18 08:43:00,60.0,54.0,30.28,WSW,247,6.0,9.0,80,0.00,,,0.00,Rainwise IP-100,2013-05-18 12:43:00,
2013-05-18 08:48:00,61.0,54.5,30.28,NW,315,0.0,9.0,80,0.00,,,0.00,Rainwise IP-100,2013-05-18 12:48:00,
2013-05-18 08:53:00,60.0,54.0,30.28,SSW,202,9.0,10.0,80,0.00,,,0.00,Rainwise IP-100,2013-05-18 12:53:00,
2013-05-18 08:58:00,61.0,54.5,30.28,WNW,292,4.0,11.0,80,0.00,,,0.00,Rainwise IP-100,2013-05-18 12:58:00,
2013-05-18 09:03:00,61.0,55.0,30.29,SW,225,3.0,8.0,81,0.00,,,0.00,Rainwise IP-100,2013-05-18 13:03:00,
2013-05-18 09:08:00,60.0,54.0,30.29,West,270,4.0,12.0,81,0.00,,,0.00,Rainwise IP-100,2013-05-18 13:08:00,
2013-05-18 09:14:00,61.0,55.0,30.29,WSW,247,0.0,12.0,81,0.00,,,0.00,Rainwise IP-100,2013-05-18 13:14:00,
2013-05-18 09:19:00,61.0,55.0,30.29,WSW,247,8.0,8.0,81,0.00,,,0.00,Rainwise IP-100,2013-05-18 13:19:00,
2013-05-18 09:24:00,61.0,55.0,30.29,West,270,7.0,13.0,81,0.00,,,0.00,Rainwise IP-100,2013-05-18 13:24:00,
2013-05-18 09:29:00,61.0,55.0,30.30,SW,225,4.0,10.0,82,0.00,,,0.00,Rainwise IP-100,2013-05-18 13:29:00,
2013-05-18 09:35:00,61.0,55.0,30.30,SW,225,6.0,15.0,81,0.00,,,0.00,Rainwise IP-100,2013-05-18 13:35:00,
2013-05-18 09:40:00,60.0,54.5,30.30,WNW,292,5.0,19.0,82,0.00,,,0.00,Rainwise IP-100,2013-05-18 13:40:00,
2013-05-18 09:45:00,61.0,55.0,30.30,SW,225,6.0,11.0,82,0.00,,,0.00,Rainwise IP-100,2013-05-18 13:45:00,
2013-05-18 09:50:00,61.0,55.0,30.30,SW,225,3.0,11.0,82,0.00,,,0.00,Rainwise IP-100,2013-05-18 13:50:00,
2013-05-18 09:55:00,61.0,55.0,30.30,NW,315,9.0,10.0,82,0.00,,,0.00,Rainwise IP-100,2013-05-18 13:55:00,
2013-05-18 10:00:00,62.0,56.5,30.30,NW,315,0.0,12.0,82,0.00,,,0.00,Rainwise IP-100,2013-05-18 14:00:00,
2013-05-18 10:05:00,61.0,55.0,30.30,West,270,2.0,13.0,82,0.00,,,0.00,Rainwise IP-100,2013-05-18 14:05:00,
2013-05-18 10:10:00,61.0,55.0,30.30,WSW,247,9.0,12.0,82,0.00,,,0.00,Rainwise IP-100,2013-05-18 14:10:00,
2013-05-18 10:15:00,61.0,55.0,30.30,SW,225,6.0,16.0,82,0.00,,,0.00,Rainwise IP-100,2013-05-18 14:15:00,
2013-05-18 10:20:00,62.0,56.5,30.30,West,270,5.0,12.0,82,0.00,,,0.00,Rainwise IP-100,2013-05-18 14:20:00,
2013-05-18 10:26:00,61.0,55.0,30.30,West,270,5.0,16.0,82,0.00,,,0.00,Rainwise IP-100,2013-05-18 14:26:00,
2013-05-18 10:31:00,62.0,56.5,30.30,WNW,292,10.0,14.0,82,0.00,,,0.00,Rainwise IP-100,2013-05-18 14:31:00,
2013-05-18 10:36:00,62.0,56.5,30.30,West,270,7.0,12.0,82,0.00,,,0.00,Rainwise IP-100,2013-05-18 14:36:00,
2013-05-18 10:41:00,62.0,56.5,30.30,WSW,247,6.0,15.0,82,0.00,,,0.00,Rainwise IP-100,2013-05-18 14:41:00,
2013-05-18 10:46:00,62.0,56.5,30.30,SW,225,9.0,12.0,82,0.00,,,0.00,Rainwise IP-100,2013-05-18 14:46:00,
2013-05-18 10:51:00,62.0,56.5,30.30,WSW,247,9.0,15.0,82,0.00,,,0.00,Rainwise IP-100,2013-05-18 14:51:00,
2013-05-18 10:56:00,62.0,56.5,30.30,WSW,247,7.0,16.0,82,0.00,,,0.00,Rainwise IP-100,2013-05-18 14:56:00,
2013-05-18 11:01:00,63.0,57.5,30.30,WSW,247,3.0,12.0,82,0.00,,,0.00,Rainwise IP-100,2013-05-18 15:01:00,
2013-05-18 11:06:00,63.0,57.5,30.30,SSW,202,7.0,15.0,82,0.00,,,0.00,Rainwise IP-100,2013-05-18 15:06:00,
2013-05-18 11:11:00,63.0,57.5,30.29,NNW,337,6.0,15.0,82,0.00,,,0.00,Rainwise IP-100,2013-05-18 15:11:00,
2013-05-18 11:16:00,63.0,57.5,30.29,SW,225,7.0,15.0,82,0.00,,,0.00,Rainwise IP-100,2013-05-18 15:16:00,
2013-05-18 11:21:00,62.0,56.5,30.29,SSW,202,10.0,13.0,82,0.00,,,0.00,Rainwise IP-100,2013-05-18 15:21:00,
2013-05-18 11:26:00,63.0,57.5,30.29,SW,225,2.0,13.0,82,0.00,,,0.00,Rainwise IP-100,2013-05-18 15:26:00,
2013-05-18 11:31:00,62.0,56.5,30.29,WNW,292,7.0,14.0,82,0.00,,,0.00,Rainwise IP-100,2013-05-18 15:31:00,
2013-05-18 11:36:00,63.0,57.5,30.29,North,360,4.0,16.0,82,0.00,,,0.00,Rainwise IP-100,2013-05-18 15:36:00,
2013-05-18 11:42:00,63.0,57.5,30.28,NW,315,2.0,15.0,82,0.00,,,0.00,Rainwise IP-100,2013-05-18 15:42:00,
2013-05-18 11:47:00,63.0,57.5,30.28,West,270,1.0,16.0,82,0.00,,,0.00,Rainwise IP-100,2013-05-18 15:47:00,
2013-05-18 11:52:00,62.0,56.5,30.28,SW,225,4.0,16.0,82,0.00,,,0.00,Rainwise IP-100,2013-05-18 15:52:00,
2013-05-18 11:57:00,63.0,57.5,30.28,West,270,2.0,14.0,82,0.00,,,0.00,Rainwise IP-100,2013-05-18 15:57:00,
2013-05-18 12:02:00,63.0,57.5,30.28,WSW,247,14.0,14.0,82,0.00,,,0.00,Rainwise IP-100,2013-05-18 16:02:00,
2013-05-18 12:07:00,63.0,57.5,30.28,SSW,202,7.0,15.0,82,0.00,,,0.00,Rainwise IP-100,2013-05-18 16:07:00,
2013-05-18 12:12:00,62.0,56.5,30.28,SSW,202,3.0,14.0,82,0.00,,,0.00,Rainwise IP-100,2013-05-18 16:12:00,
2013-05-18 12:17:00,63.0,57.5,30.28,South,180,4.0,12.0,82,0.00,,,0.00,Rainwise IP-100,2013-05-18 16:17:00,
2013-05-18 12:22:00,63.0,57.5,30.28,West,270,6.0,16.0,82,0.00,,,0.00,Rainwise IP-100,2013-05-18 16:22:00,
2013-05-18 12:27:00,63.0,57.5,30.28,West,270,9.0,12.0,82,0.00,,,0.00,Rainwise IP-100,2013-05-18 16:27:00,
2013-05-18 12:32:00,63.0,57.5,30.28,WSW,247,9.0,16.0,82,0.00,,,0.00,Rainwise IP-100,2013-05-18 16:32:00,
2013-05-18 12:37:00,63.0,57.5,30.28,West,270,7.0,15.0,82,0.00,,,0.00,Rainwise IP-100,2013-05-18 16:37:00,
2013-05-18 12:42:00,62.0,56.5,30.28,SW,225,11.0,17.0,82,0.00,,,0.00,Rainwise IP-100,2013-05-18 16:42:00,
2013-05-18 12:47:00,63.0,57.5,30.28,West,270,2.0,15.0,82,0.00,,,0.00,Rainwise IP-100,2013-05-18 16:47:00,
2013-05-18 12:52:00,63.0,57.5,30.28,West,270,0.0,14.0,82,0.00,,,0.00,Rainwise IP-100,2013-05-18 16:52:00,
2013-05-18 12:58:00,63.0,57.5,30.28,SW,225,10.0,16.0,82,0.00,,,0.00,Rainwise IP-100,2013-05-18 16:58:00,
2013-05-18 13:03:00,62.0,56.5,30.28,West,270,3.0,15.0,82,0.00,,,0.00,Rainwise IP-100,2013-05-18 17:03:00,
2013-05-18 13:08:00,62.0,56.5,30.28,WSW,247,3.0,15.0,82,0.00,,,0.00,Rainwise IP-100,2013-05-18 17:08:00,
2013-05-18 13:13:00,62.0,56.5,30.28,South,180,4.0,15.0,82,0.00,,,0.00,Rainwise IP-100,2013-05-18 17:13:00,
2013-05-18 13:18:00,62.0,56.5,30.28,West,270,4.0,15.0,82,0.00,,,0.00,Rainwise IP-100,2013-05-18 17:18:00,
2013-05-18 13:23:00,62.0,56.5,30.27,WSW,247,4.0,10.0,82,0.00,,,0.00,Rainwise IP-100,2013-05-18 17:23:00,
2013-05-18 13:28:00,63.0,57.5,30.27,NW,315,9.0,13.0,82,0.00,,,0.00,Rainwise IP-100,2013-05-18 17:28:00,
2013-05-18 13:33:00,62.0,56.5,30.27,West,270,6.0,14.0,82,0.00,,,0.00,Rainwise IP-100,2013-05-18 17:33:00,
2013-05-18 13:38:00,63.0,57.5,30.27,NW,315,5.0,12.0,82,0.00,,,0.00,Rainwise IP-100,2013-05-18 17:38:00,
2013-05-18 13:43:00,63.0,57.5,30.27,WSW,247,10.0,15.0,82,0.00,,,0.00,Rainwise IP-100,2013-05-18 17:43:00,
2013-05-18 13:48:00,64.0,59.0,30.27,South,180,0.0,13.0,83,0.00,,,0.00,Rainwise IP-100,2013-05-18 17:48:00,
2013-05-18 13:53:00,64.0,59.0,30.26,SW,225,2.0,9.0,83,0.00,,,0.00,Rainwise IP-100,2013-05-18 17:53:00,
2013-05-18 13:58:00,63.0,57.5,30.26,WSW,247,11.0,14.0,82,0.00,,,0.00,Rainwise IP-100,2013-05-18 17:58:00,
2013-05-18 14:03:00,62.0,56.5,30.27,WSW,247,1.0,15.0,82,0.00,,,0.00,Rainwise IP-100,2013-05-18 18:03:00,
2013-05-18 14:08:00,63.0,57.5,30.27,SSW,202,3.0,11.0,82,0.00,,,0.00,Rainwise IP-100,2013-05-18 18:08:00,
2013-05-18 14:14:00,63.0,57.5,30.26,SW,225,5.0,10.0,82,0.00,,,0.00,Rainwise IP-100,2013-05-18 18:14:00,
2013-05-18 14:19:00,61.0,55.0,30.26,SW,225,9.0,14.0,82,0.00,,,0.00,Rainwise IP-100,2013-05-18 18:19:00,
2013-05-18 14:24:00,60.0,54.5,30.28,SSW,202,8.0,14.0,82,0.00,,,0.00,Rainwise IP-100,2013-05-18 18:24:00,
2013-05-18 14:29:00,60.0,54.5,30.28,SW,225,6.0,13.0,82,0.00,,,0.00,Rainwise IP-100,2013-05-18 18:29:00,
2013-05-18 14:34:00,60.0,54.5,30.28,SW,225,9.0,14.0,82,0.00,,,0.00,Rainwise IP-100,2013-05-18 18:34:00,
2013-05-18 14:39:00,61.0,55.0,30.28,SW,225,10.0,12.0,82,0.00,,,0.00,Rainwise IP-100,2013-05-18 18:39:00,
2013-05-18 14:44:00,61.0,55.0,30.28,WSW,247,1.0,12.0,82,0.00,,,0.00,Rainwise IP-100,2013-05-18 18:44:00,
2013-05-18 14:49:00,62.0,56.5,30.28,WNW,292,2.0,11.0,82,0.00,,,0.00,Rainwise IP-100,2013-05-18 18:49:00,
2013-05-18 14:54:00,62.0,56.5,30.26,SSW,202,5.0,13.0,82,0.00,,,0.00,Rainwise IP-100,2013-05-18 18:54:00,
2013-05-18 14:59:00,62.0,56.5,30.27,SW,225,12.0,13.0,82,0.00,,,0.00,Rainwise IP-100,2013-05-18 18:59:00,
2013-05-18 15:04:00,62.0,56.5,30.27,SW,225,2.0,12.0,82,0.00,,,0.00,Rainwise IP-100,2013-05-18 19:04:00,
2013-05-18 15:09:00,63.0,57.5,30.26,SW,225,0.0,9.0,82,0.00,,,0.00,Rainwise IP-100,2013-05-18 19:09:00,
2013-05-18 15:14:00,61.0,55.0,30.26,SW,225,7.0,13.0,82,0.00,,,0.00,Rainwise IP-100,2013-05-18 19:14:00,
2013-05-18 15:19:00,62.0,56.5,30.26,West,270,4.0,14.0,82,0.00,,,0.00,Rainwise IP-100,2013-05-18 19:19:00,
2013-05-18 15:24:00,61.0,55.0,30.26,WSW,247,9.0,12.0,82,0.00,,,0.00,Rainwise IP-100,2013-05-18 19:24:00,
2013-05-18 15:30:00,62.0,56.5,30.26,SSW,202,10.0,13.0,82,0.00,,,0.00,Rainwise IP-100,2013-05-18 19:30:00,
2013-05-18 15:35:00,62.0,56.5,30.26,NW,315,3.0,15.0,82,0.00,,,0.00,Rainwise IP-100,2013-05-18 19:35:00,
2013-05-18 15:40:00,61.0,55.0,30.28,SSW,202,10.0,13.0,82,0.00,,,0.00,Rainwise IP-100,2013-05-18 19:40:00,
2013-05-18 15:45:00,61.0,55.0,30.28,South,180,3.0,13.0,82,0.00,,,0.00,Rainwise IP-100,2013-05-18 19:45:00,
2013-05-18 15:50:00,61.0,55.0,30.27,SSE,157,1.0,15.0,82,0.00,,,0.00,Rainwise IP-100,2013-05-18 19:50:00,
2013-05-18 15:55:00,61.0,55.0,30.27,West,270,5.0,13.0,82,0.00,,,0.00,Rainwise IP-100,2013-05-18 19:55:00,
2013-05-18 16:00:00,61.0,55.0,30.28,SSW,202,4.0,17.0,82,0.00,,,0.00,Rainwise IP-100,2013-05-18 20:00:00,
2013-05-18 16:05:00,61.0,55.0,30.28,West,270,1.0,10.0,82,0.00,,,0.00,Rainwise IP-100,2013-05-18 20:05:00,
2013-05-18 16:10:00,61.0,55.0,30.27,SW,225,6.0,14.0,82,0.00,,,0.00,Rainwise IP-100,2013-05-18 20:10:00,
2013-05-18 16:15:00,61.0,55.0,30.27,South,180,3.0,8.0,82,0.00,,,0.00,Rainwise IP-100,2013-05-18 20:15:00,
2013-05-18 16:20:00,61.0,55.0,30.27,South,180,2.0,12.0,82,0.00,,,0.00,Rainwise IP-100,2013-05-18 20:20:00,
2013-05-18 16:25:00,60.0,54.5,30.27,SSW,202,10.0,15.0,82,0.00,,,0.00,Rainwise IP-100,2013-05-18 20:25:00,
2013-05-18 16:30:00,60.0,54.5,30.28,SW,225,5.0,12.0,82,0.00,,,0.00,Rainwise IP-100,2013-05-18 20:30:00,
2013-05-18 16:36:00,60.0,54.5,30.28,SSW,202,0.0,10.0,82,0.00,,,0.00,Rainwise IP-100,2013-05-18 20:36:00,
2013-05-18 16:41:00,60.0,54.5,30.28,NW,315,2.0,10.0,82,0.00,,,0.00,Rainwise IP-100,2013-05-18 20:41:00,
2013-05-18 16:46:00,60.0,54.5,30.28,South,180,2.0,10.0,82,0.00,,,0.00,Rainwise IP-100,2013-05-18 20:46:00,
2013-05-18 16:51:00,60.0,54.5,30.28,SSW,202,1.0,10.0,82,0.00,,,0.00,Rainwise IP-100,2013-05-18 20:51:00,
2013-05-18 16:56:00,60.0,54.5,30.28,SW,225,7.0,11.0,82,0.00,,,0.00,Rainwise IP-100,2013-05-18 20:56:00,
2013-05-18 17:01:00,59.0,53.5,30.28,SW,225,2.0,10.0,82,0.00,,,0.00,Rainwise IP-100,2013-05-18 21:01:00,
2013-05-18 17:06:00,59.0,53.5,30.28,SW,225,13.0,13.0,82,0.00,,,0.00,Rainwise IP-100,2013-05-18 21:06:00,
2013-05-18 17:12:00,59.0,53.5,30.29,SW,225,3.0,14.0,82,0.00,,,0.00,Rainwise IP-100,2013-05-18 21:12:00,
2013-05-18 17:17:00,59.0,53.5,30.29,WSW,247,7.0,10.0,82,0.00,,,0.00,Rainwise IP-100,2013-05-18 21:17:00,
2013-05-18 17:22:00,59.0,53.5,30.29,SW,225,6.0,10.0,82,0.00,,,0.00,Rainwise IP-100,2013-05-18 21:22:00,
2013-05-18 17:27:00,59.0,53.5,30.29,SE,135,1.0,9.0,82,0.00,,,0.00,Rainwise IP-100,2013-05-18 21:27:00,
2013-05-18 17:32:00,59.0,53.5,30.29,SSW,202,10.0,10.0,82,0.00,,,0.00,Rainwise IP-100,2013-05-18 21:32:00,
2013-05-18 17:37:00,58.0,53.0,30.29,SW,225,3.0,13.0,81,0.00,,,0.00,Rainwise IP-100,2013-05-18 21:37:00,
2013-05-18 17:42:00,58.0,53.0,30.29,South,180,0.0,9.0,81,0.00,,,0.00,Rainwise IP-100,2013-05-18 21:42:00,
2013-05-18 17:47:00,58.0,53.0,30.29,West,270,0.0,9.0,81,0.00,,,0.00,Rainwise IP-100,2013-05-18 21:47:00,
2013-05-18 17:52:00,58.0,52.0,30.29,ESE,112,0.0,10.0,80,0.00,,,0.00,Rainwise IP-100,2013-05-18 21:52:00,
2013-05-18 17:57:00,58.0,52.0,30.29,SW,225,11.0,12.0,80,0.00,,,0.00,Rainwise IP-100,2013-05-18 21:57:00,
2013-05-18 18:02:00,58.0,52.0,30.29,South,180,4.0,12.0,80,0.00,,,0.00,Rainwise IP-100,2013-05-18 22:02:00,
2013-05-18 18:07:00,58.0,52.0,30.29,SSW,202,2.0,9.0,80,0.00,,,0.00,Rainwise IP-100,2013-05-18 22:07:00,
2013-05-18 18:12:00,58.0,52.0,30.29,West,270,1.0,10.0,80,0.00,,,0.00,Rainwise IP-100,2013-05-18 22:12:00,
2013-05-18 18:17:00,58.0,52.0,30.29,SW,225,1.0,10.0,80,0.00,,,0.00,Rainwise IP-100,2013-05-18 22:17:00,
2013-05-18 18:23:00,58.0,52.0,30.29,SW,225,2.0,9.0,80,0.00,,,0.00,Rainwise IP-100,2013-05-18 22:23:00,
2013-05-18 18:28:00,57.0,51.0,30.29,SW,225,7.0,12.0,80,0.00,,,0.00,Rainwise IP-100,2013-05-18 22:28:00,
2013-05-18 18:33:00,57.0,51.0,30.29,SW,225,3.0,13.0,80,0.00,,,0.00,Rainwise IP-100,2013-05-18 22:33:00,
2013-05-18 18:38:00,57.0,50.5,30.29,SSE,157,0.0,10.0,79,0.00,,,0.00,Rainwise IP-100,2013-05-18 22:38:00,
2013-05-18 18:43:00,57.0,50.5,30.30,SSW,202,9.0,10.0,79,0.00,,,0.00,Rainwise IP-100,2013-05-18 22:43:00,
2013-05-18 18:48:00,57.0,50.5,30.30,WSW,247,3.0,9.0,79,0.00,,,0.00,Rainwise IP-100,2013-05-18 22:48:00,
2013-05-18 18:53:00,57.0,50.5,30.30,SW,225,0.0,12.0,79,0.00,,,0.00,Rainwise IP-100,2013-05-18 22:53:00,
2013-05-18 18:58:00,57.0,50.5,30.30,SSW,202,3.0,9.0,79,0.00,,,0.00,Rainwise IP-100,2013-05-18 22:58:00,
2013-05-18 19:03:00,57.0,50.5,30.30,SSW,202,1.0,9.0,79,0.00,,,0.00,Rainwise IP-100,2013-05-18 23:03:00,
2013-05-18 19:08:00,57.0,50.5,30.30,SSW,202,6.0,9.0,79,0.00,,,0.00,Rainwise IP-100,2013-05-18 23:08:00,
2013-05-18 19:13:00,57.0,50.5,30.30,South,180,1.0,7.0,79,0.00,,,0.00,Rainwise IP-100,2013-05-18 23:13:00,
2013-05-18 19:18:00,56.0,50.0,30.30,West,270,2.0,6.0,79,0.00,,,0.00,Rainwise IP-100,2013-05-18 23:18:00,
2013-05-18 19:24:00,56.0,50.0,30.30,SSW,202,0.0,10.0,79,0.00,,,0.00,Rainwise IP-100,2013-05-18 23:24:00,
2013-05-18 19:29:00,56.0,50.0,30.30,SW,225,1.0,12.0,79,0.00,,,0.00,Rainwise IP-100,2013-05-18 23:29:00,
2013-05-18 19:34:00,56.0,50.0,30.30,West,270,0.0,9.0,79,0.00,,,0.00,Rainwise IP-100,2013-05-18 23:34:00,
2013-05-18 19:39:00,55.0,48.0,30.30,South,180,1.0,7.0,78,0.00,,,0.00,Rainwise IP-100,2013-05-18 23:39:00,
2013-05-18 19:44:00,55.0,48.0,30.30,WSW,247,6.0,9.0,78,0.00,,,0.00,Rainwise IP-100,2013-05-18 23:44:00,
2013-05-18 19:49:00,55.0,48.0,30.30,SW,225,6.0,9.0,78,0.00,,,0.00,Rainwise IP-100,2013-05-18 23:49:00,
2013-05-18 19:54:00,55.0,48.0,30.31,SSW,202,0.0,8.0,78,0.00,,,0.00,Rainwise IP-100,2013-05-18 23:54:00,
2013-05-18 19:59:00,55.0,48.0,30.31,SW,225,0.0,7.0,77,0.00,,,0.00,Rainwise IP-100,2013-05-18 23:59:00,
2013-05-18 20:04:00,55.0,47.5,30.30,SW,225,3.0,7.0,76,0.00,,,0.00,Rainwise IP-100,2013-05-19 00:04:00,
2013-05-18 20:09:00,55.0,48.0,30.30,SW,225,0.0,7.0,78,0.00,,,0.00,Rainwise IP-100,2013-05-19 00:09:00,
2013-05-18 20:14:00,55.0,47.5,30.30,SSW,202,4.0,9.0,76,0.00,,,0.00,Rainwise IP-100,2013-05-19 00:14:00,
2013-05-18 20:19:00,55.0,48.0,30.31,SW,225,2.0,8.0,78,0.00,,,0.00,Rainwise IP-100,2013-05-19 00:19:00,
2013-05-18 20:24:00,54.0,47.0,30.31,SSW,202,2.0,6.0,75,0.00,,,0.00,Rainwise IP-100,2013-05-19 00:24:00,
2013-05-18 20:29:00,54.0,47.0,30.31,NW,315,0.0,7.0,75,0.00,,,0.00,Rainwise IP-100,2013-05-19 00:29:00,
2013-05-18 20:34:00,54.0,46.0,30.32,SW,225,5.0,7.0,74,0.00,,,0.00,Rainwise IP-100,2013-05-19 00:34:00,
2013-05-18 20:40:00,54.0,47.0,30.32,South,180,1.0,9.0,77,0.00,,,0.00,Rainwise IP-100,2013-05-19 00:40:00,
2013-05-18 20:45:00,54.0,46.0,30.32,SW,225,0.0,8.0,74,0.00,,,0.00,Rainwise IP-100,2013-05-19 00:45:00,
2013-05-18 20:50:00,55.0,47.5,30.31,SW,225,8.0,8.0,76,0.00,,,0.00,Rainwise IP-100,2013-05-19 00:50:00,
2013-05-18 20:55:00,54.0,46.0,30.31,South,180,2.0,9.0,74,0.00,,,0.00,Rainwise IP-100,2013-05-19 00:55:00,
2013-05-18 21:00:00,54.0,47.0,30.32,SW,225,4.0,9.0,76,0.00,,,0.00,Rainwise IP-100,2013-05-19 01:00:00,
2013-05-18 21:05:00,54.0,46.0,30.32,WSW,247,0.0,7.0,73,0.00,,,0.00,Rainwise IP-100,2013-05-19 01:05:00,
2013-05-18 21:10:00,54.0,46.0,30.32,SE,135,0.0,9.0,73,0.00,,,0.00,Rainwise IP-100,2013-05-19 01:10:00,
2013-05-18 21:15:00,54.0,46.0,30.32,West,270,0.0,6.0,73,0.00,,,0.00,Rainwise IP-100,2013-05-19 01:15:00,
2013-05-18 21:20:00,54.0,46.0,30.32,West,270,2.0,8.0,73,0.00,,,0.00,Rainwise IP-100,2013-05-19 01:20:00,
2013-05-18 21:25:00,54.0,46.0,30.32,SW,225,1.0,6.0,73,0.00,,,0.00,Rainwise IP-100,2013-05-19 01:25:00,
2013-05-18 21:30:00,54.0,46.0,30.32,SW,225,5.0,7.0,73,0.00,,,0.00,Rainwise IP-100,2013-05-19 01:30:00,
2013-05-18 21:35:00,54.0,46.0,30.32,SW,225,0.0,6.0,73,0.00,,,0.00,Rainwise IP-100,2013-05-19 01:35:00,
2013-05-18 21:40:00,54.0,46.0,30.32,SW,225,0.0,6.0,73,0.00,,,0.00,Rainwise IP-100,2013-05-19 01:40:00,
2013-05-18 21:46:00,54.0,46.0,30.32,WSW,247,0.0,7.0,73,0.00,,,0.00,Rainwise IP-100,2013-05-19 01:46:00,
2013-05-18 21:51:00,54.0,46.0,30.32,SW,225,0.0,7.0,73,0.00,,,0.00,Rainwise IP-100,2013-05-19 01:51:00,
2013-05-18 21:56:00,54.0,46.0,30.32,South,180,0.0,10.0,73,0.00,,,0.00,Rainwise IP-100,2013-05-19 01:56:00,
2013-05-18 22:01:00,54.0,46.0,30.31,WSW,247,3.0,7.0,74,0.00,,,0.00,Rainwise IP-100,2013-05-19 02:01:00,
2013-05-18 22:06:00,54.0,46.0,30.31,WSW,247,0.0,6.0,74,0.00,,,0.00,Rainwise IP-100,2013-05-19 02:06:00,
2013-05-18 22:11:00,54.0,46.0,30.31,SSW,202,0.0,8.0,74,0.00,,,0.00,Rainwise IP-100,2013-05-19 02:11:00,
2013-05-18 22:16:00,54.0,46.0,30.31,SW,225,0.0,5.0,74,0.00,,,0.00,Rainwise IP-100,2013-05-19 02:16:00,
2013-05-18 22:21:00,54.0,46.0,30.32,WSW,247,2.0,7.0,74,0.00,,,0.00,Rainwise IP-100,2013-05-19 02:21:00,
2013-05-18 22:26:00,54.0,46.0,30.32,SSW,202,2.0,7.0,73,0.00,,,0.00,Rainwise IP-100,2013-05-19 02:26:00,
2013-05-18 22:31:00,54.0,46.0,30.31,South,180,0.0,6.0,73,0.00,,,0.00,Rainwise IP-100,2013-05-19 02:31:00,
2013-05-18 22:36:00,54.0,46.0,30.31,South,180,3.0,8.0,73,0.00,,,0.00,Rainwise IP-100,2013-05-19 02:36:00,
2013-05-18 22:41:00,54.0,46.0,30.31,WNW,292,0.0,7.0,73,0.00,,,0.00,Rainwise IP-100,2013-05-19 02:41:00,
2013-05-18 22:46:00,54.0,46.0,30.31,North,360,0.0,6.0,73,0.00,,,0.00,Rainwise IP-100,2013-05-19 02:46:00,
2013-05-18 22:51:00,54.0,46.0,30.31,South,180,1.0,5.0,73,0.00,,,0.00,Rainwise IP-100,2013-05-19 02:51:00,
2013-05-18 22:56:00,54.0,45.0,30.31,WSW,247,0.0,6.0,72,0.00,,,0.00,Rainwise IP-100,2013-05-19 02:56:00,
2013-05-18 23:02:00,54.0,45.0,30.31,South,180,0.0,6.0,72,0.00,,,0.00,Rainwise IP-100,2013-05-19 03:02:00,
2013-05-18 23:07:00,54.0,45.0,30.31,West,270,0.0,5.0,71,0.00,,,0.00,Rainwise IP-100,2013-05-19 03:07:00,
2013-05-18 23:12:00,54.0,45.0,30.31,SW,225,5.0,7.0,71,0.00,,,0.00,Rainwise IP-100,2013-05-19 03:12:00,
2013-05-18 23:17:00,54.0,45.0,30.31,SW,225,2.0,6.0,71,0.00,,,0.00,Rainwise IP-100,2013-05-19 03:17:00,
2013-05-18 23:22:00,54.0,44.0,30.31,WSW,247,1.0,9.0,70,0.00,,,0.00,Rainwise IP-100,2013-05-19 03:22:00,
2013-05-18 23:27:00,54.0,44.0,30.31,WSW,247,2.0,9.0,70,0.00,,,0.00,Rainwise IP-100,2013-05-19 03:27:00,
2013-05-18 23:32:00,54.0,44.0,30.32,West,270,0.0,5.0,70,0.00,,,0.00,Rainwise IP-100,2013-05-19 03:32:00,
2013-05-18 23:37:00,54.0,44.0,30.32,WSW,247,0.0,3.0,69,0.00,,,0.00,Rainwise IP-100,2013-05-19 03:37:00,
2013-05-18 23:42:00,54.0,44.0,30.31,SSW,202,0.0,4.0,69,0.00,,,0.00,Rainwise IP-100,2013-05-19 03:42:00,
2013-05-18 23:47:00,54.0,44.0,30.31,SW,225,0.0,7.0,69,0.00,,,0.00,Rainwise IP-100,2013-05-19 03:47:00,
2013-05-18 23:52:00,54.0,44.0,30.32,WNW,292,0.0,5.0,68,0.00,,,0.00,Rainwise IP-100,2013-05-19 03:52:00,
2013-05-18 23:57:00,54.0,44.0,30.32,WNW,292,2.0,6.0,68,0.00,,,0.00,Rainwise IP-100,2013-05-19 03:57:00,